sensor_id;sensor_type;location;lat;lon;timestamp;P1;durP1;ratioP1;P2;durP2;ratioP2
52033;SDS011;38045;52.988;6.536;2022-12-07T00:01:06;11.55;;;5.88;;
52033;SDS011;38045;52.988;6.536;2022-12-07T00:03:37;11.30;;;6.57;;
52033;SDS011;38045;52.988;6.536;2022-12-07T00:06:04;5.00;;;4.50;;
52033;SDS011;38045;52.988;6.536;2022-12-07T00:08:31;6.70;;;2.95;;
52033;SDS011;38045;52.988;6.536;2022-12-07T00:11:01;4.05;;;2.58;;
52033;SDS011;38045;52.988;6.536;2022-12-07T00:13:37;7.55;;;3.58;;
52033;SDS011;38045;52.988;6.536;2022-12-07T00:16:22;8.07;;;5.45;;
52033;SDS011;38045;52.988;6.536;2022-12-07T00:18:49;6.57;;;2.50;;
52033;SDS011;38045;52.988;6.536;2022-12-07T00:21:16;8.95;;;2.35;;
52033;SDS011;38045;52.988;6.536;2022-12-07T00:23:44;26.60;;;11.40;;
52033;SDS011;38045;52.988;6.536;2022-12-07T00:26:12;14.40;;;7.95;;
52033;SDS011;38045;52.988;6.536;2022-12-07T00:28:39;11.88;;;2.67;;
52033;SDS011;38045;52.988;6.536;2022-12-07T00:31:07;7.10;;;1.77;;
52033;SDS011;38045;52.988;6.536;2022-12-07T00:33:34;8.23;;;4.40;;
52033;SDS011;38045;52.988;6.536;2022-12-07T00:36:01;8.93;;;4.97;;
52033;SDS011;38045;52.988;6.536;2022-12-07T00:38:30;10.65;;;4.78;;
52033;SDS011;38045;52.988;6.536;2022-12-07T00:41:01;8.27;;;2.38;;
52033;SDS011;38045;52.988;6.536;2022-12-07T00:43:29;12.15;;;4.70;;
52033;SDS011;38045;52.988;6.536;2022-12-07T00:45:55;15.98;;;6.97;;
52033;SDS011;38045;52.988;6.536;2022-12-07T00:48:21;7.95;;;5.78;;
52033;SDS011;38045;52.988;6.536;2022-12-07T00:50:47;14.00;;;8.13;;
52033;SDS011;38045;52.988;6.536;2022-12-07T00:53:13;17.10;;;7.88;;
52033;SDS011;38045;52.988;6.536;2022-12-07T00:55:39;21.50;;;17.63;;
52033;SDS011;38045;52.988;6.536;2022-12-07T00:58:04;15.13;;;5.60;;
52033;SDS011;38045;52.988;6.536;2022-12-07T01:00:30;9.13;;;4.32;;
52033;SDS011;38045;52.988;6.536;2022-12-07T01:02:56;9.93;;;3.33;;
52033;SDS011;38045;52.988;6.536;2022-12-07T01:05:22;6.50;;;3.60;;
52033;SDS011;38045;52.988;6.536;2022-12-07T01:07:47;5.72;;;2.50;;
52033;SDS011;38045;52.988;6.536;2022-12-07T01:10:13;12.38;;;5.53;;
52033;SDS011;38045;52.988;6.536;2022-12-07T01:12:39;7.97;;;5.10;;
52033;SDS011;38045;52.988;6.536;2022-12-07T01:15:06;19.52;;;10.02;;
52033;SDS011;38045;52.988;6.536;2022-12-07T01:17:33;13.15;;;7.00;;
52033;SDS011;38045;52.988;6.536;2022-12-07T01:19:59;9.00;;;4.85;;
52033;SDS011;38045;52.988;6.536;2022-12-07T01:22:25;8.65;;;4.40;;
52033;SDS011;38045;52.988;6.536;2022-12-07T01:24:51;14.65;;;5.47;;
52033;SDS011;38045;52.988;6.536;2022-12-07T01:27:16;4.35;;;1.38;;
52033;SDS011;38045;52.988;6.536;2022-12-07T01:29:42;6.80;;;2.42;;
52033;SDS011;38045;52.988;6.536;2022-12-07T01:32:08;7.65;;;1.13;;
52033;SDS011;38045;52.988;6.536;2022-12-07T01:34:33;15.20;;;3.17;;
52033;SDS011;38045;52.988;6.536;2022-12-07T01:36:59;2.13;;;1.45;;
52033;SDS011;38045;52.988;6.536;2022-12-07T01:39:24;14.15;;;6.13;;
52033;SDS011;38045;52.988;6.536;2022-12-07T01:41:50;7.45;;;2.40;;
52033;SDS011;38045;52.988;6.536;2022-12-07T01:46:45;5.93;;;2.77;;
52033;SDS011;38045;52.988;6.536;2022-12-07T01:49:14;2.63;;;1.50;;
52033;SDS011;38045;52.988;6.536;2022-12-07T01:51:46;6.45;;;2.15;;
52033;SDS011;38045;52.988;6.536;2022-12-07T01:54:14;5.75;;;1.58;;
52033;SDS011;38045;52.988;6.536;2022-12-07T01:56:41;12.98;;;4.03;;
52033;SDS011;38045;52.988;6.536;2022-12-07T01:59:14;4.25;;;1.75;;
52033;SDS011;38045;52.988;6.536;2022-12-07T02:01:41;5.35;;;1.85;;
52033;SDS011;38045;52.988;6.536;2022-12-07T02:04:07;4.80;;;2.42;;
52033;SDS011;38045;52.988;6.536;2022-12-07T02:06:33;7.13;;;1.92;;
52033;SDS011;38045;52.988;6.536;2022-12-07T02:09:01;10.88;;;1.13;;
52033;SDS011;38045;52.988;6.536;2022-12-07T02:11:27;7.55;;;1.80;;
52033;SDS011;38045;52.988;6.536;2022-12-07T02:13:53;4.18;;;1.33;;
52033;SDS011;38045;52.988;6.536;2022-12-07T02:16:26;10.80;;;1.65;;
52033;SDS011;38045;52.988;6.536;2022-12-07T02:30:08;5.82;;;2.05;;
52033;SDS011;38045;52.988;6.536;2022-12-07T02:35:32;7.30;;;2.40;;
52033;SDS011;38045;52.988;6.536;2022-12-07T02:41:10;6.18;;;1.42;;
52033;SDS011;38045;52.988;6.536;2022-12-07T02:43:46;0.50;;;0.50;;
52033;SDS011;38045;52.988;6.536;2022-12-07T02:46:18;7.43;;;1.95;;
52033;SDS011;38045;52.988;6.536;2022-12-07T02:48:48;4.53;;;0.88;;
52033;SDS011;38045;52.988;6.536;2022-12-07T02:51:52;2.90;;;1.20;;
52033;SDS011;38045;52.988;6.536;2022-12-07T02:54:18;2.00;;;1.15;;
52033;SDS011;38045;52.988;6.536;2022-12-07T02:56:57;6.05;;;1.35;;
52033;SDS011;38045;52.988;6.536;2022-12-07T03:13:10;5.57;;;1.08;;
52033;SDS011;38045;52.988;6.536;2022-12-07T03:15:58;7.25;;;1.70;;
52033;SDS011;38045;52.988;6.536;2022-12-07T03:18:44;6.93;;;2.33;;
52033;SDS011;38045;52.988;6.536;2022-12-07T03:21:31;16.63;;;3.25;;
52033;SDS011;38045;52.988;6.536;2022-12-07T03:24:04;7.82;;;1.35;;
52033;SDS011;38045;52.988;6.536;2022-12-07T03:26:37;9.25;;;1.23;;
52033;SDS011;38045;52.988;6.536;2022-12-07T03:29:08;4.18;;;1.45;;
52033;SDS011;38045;52.988;6.536;2022-12-07T03:31:40;7.05;;;1.10;;
52033;SDS011;38045;52.988;6.536;2022-12-07T03:36:50;2.97;;;1.05;;
52033;SDS011;38045;52.988;6.536;2022-12-07T03:39:22;3.40;;;1.20;;
52033;SDS011;38045;52.988;6.536;2022-12-07T03:41:54;6.68;;;2.35;;
52033;SDS011;38045;52.988;6.536;2022-12-07T03:44:21;4.82;;;1.42;;
52033;SDS011;38045;52.988;6.536;2022-12-07T03:46:54;3.65;;;1.90;;
52033;SDS011;38045;52.988;6.536;2022-12-07T03:49:29;13.30;;;2.13;;
52033;SDS011;38045;52.988;6.536;2022-12-07T03:54:45;13.23;;;0.80;;
52033;SDS011;38045;52.988;6.536;2022-12-07T03:57:35;6.47;;;1.23;;
52033;SDS011;38045;52.988;6.536;2022-12-07T04:00:04;3.38;;;1.15;;
52033;SDS011;38045;52.988;6.536;2022-12-07T04:02:32;3.80;;;1.20;;
52033;SDS011;38045;52.988;6.536;2022-12-07T04:04:59;5.40;;;1.13;;
52033;SDS011;38045;52.988;6.536;2022-12-07T04:07:25;8.32;;;2.88;;
52033;SDS011;38045;52.988;6.536;2022-12-07T04:09:51;6.97;;;1.83;;
52033;SDS011;38045;52.988;6.536;2022-12-07T04:12:19;6.83;;;2.20;;
52033;SDS011;38045;52.988;6.536;2022-12-07T04:14:45;3.75;;;0.65;;
52033;SDS011;38045;52.988;6.536;2022-12-07T04:17:11;9.13;;;1.08;;
52033;SDS011;38045;52.988;6.536;2022-12-07T04:19:37;6.53;;;0.80;;
52033;SDS011;38045;52.988;6.536;2022-12-07T04:22:03;6.47;;;1.02;;
52033;SDS011;38045;52.988;6.536;2022-12-07T04:24:29;3.33;;;0.68;;
52033;SDS011;38045;52.988;6.536;2022-12-07T04:26:55;4.28;;;1.00;;
52033;SDS011;38045;52.988;6.536;2022-12-07T04:29:21;3.28;;;0.82;;
52033;SDS011;38045;52.988;6.536;2022-12-07T04:31:47;6.78;;;1.15;;
52033;SDS011;38045;52.988;6.536;2022-12-07T04:34:13;5.97;;;1.05;;
52033;SDS011;38045;52.988;6.536;2022-12-07T04:36:40;4.38;;;1.00;;
52033;SDS011;38045;52.988;6.536;2022-12-07T04:39:06;7.85;;;1.20;;
52033;SDS011;38045;52.988;6.536;2022-12-07T04:41:33;3.60;;;1.77;;
52033;SDS011;38045;52.988;6.536;2022-12-07T04:44:00;4.82;;;1.63;;
52033;SDS011;38045;52.988;6.536;2022-12-07T04:46:28;11.60;;;2.15;;
52033;SDS011;38045;52.988;6.536;2022-12-07T04:48:55;3.30;;;0.90;;
52033;SDS011;38045;52.988;6.536;2022-12-07T04:51:22;7.10;;;1.95;;
52033;SDS011;38045;52.988;6.536;2022-12-07T04:53:49;10.60;;;1.75;;
52033;SDS011;38045;52.988;6.536;2022-12-07T04:56:15;32.83;;;3.42;;
52033;SDS011;38045;52.988;6.536;2022-12-07T04:58:42;3.25;;;0.80;;
52033;SDS011;38045;52.988;6.536;2022-12-07T05:01:08;2.38;;;0.73;;
52033;SDS011;38045;52.988;6.536;2022-12-07T05:03:35;3.38;;;0.90;;
52033;SDS011;38045;52.988;6.536;2022-12-07T05:06:01;7.57;;;1.42;;
52033;SDS011;38045;52.988;6.536;2022-12-07T05:08:27;7.38;;;2.05;;
52033;SDS011;38045;52.988;6.536;2022-12-07T05:10:52;19.13;;;3.15;;
52033;SDS011;38045;52.988;6.536;2022-12-07T05:13:18;3.55;;;1.95;;
52033;SDS011;38045;52.988;6.536;2022-12-07T05:15:43;5.32;;;1.15;;
52033;SDS011;38045;52.988;6.536;2022-12-07T05:18:09;5.85;;;1.98;;
52033;SDS011;38045;52.988;6.536;2022-12-07T05:20:37;5.13;;;1.30;;
52033;SDS011;38045;52.988;6.536;2022-12-07T05:23:03;5.85;;;0.98;;
52033;SDS011;38045;52.988;6.536;2022-12-07T05:25:29;10.73;;;1.95;;
52033;SDS011;38045;52.988;6.536;2022-12-07T05:27:55;6.82;;;2.92;;
52033;SDS011;38045;52.988;6.536;2022-12-07T05:30:22;3.33;;;0.70;;
52033;SDS011;38045;52.988;6.536;2022-12-07T05:32:48;5.07;;;0.82;;
52033;SDS011;38045;52.988;6.536;2022-12-07T05:35:14;11.98;;;1.67;;
52033;SDS011;38045;52.988;6.536;2022-12-07T05:37:40;4.70;;;1.13;;
52033;SDS011;38045;52.988;6.536;2022-12-07T05:40:06;6.60;;;1.13;;
52033;SDS011;38045;52.988;6.536;2022-12-07T05:42:32;8.60;;;2.38;;
52033;SDS011;38045;52.988;6.536;2022-12-07T05:44:57;11.52;;;1.70;;
52033;SDS011;38045;52.988;6.536;2022-12-07T05:47:23;10.70;;;1.50;;
52033;SDS011;38045;52.988;6.536;2022-12-07T05:49:49;6.50;;;1.48;;
52033;SDS011;38045;52.988;6.536;2022-12-07T05:52:14;10.63;;;1.90;;
52033;SDS011;38045;52.988;6.536;2022-12-07T05:54:40;8.40;;;1.45;;
52033;SDS011;38045;52.988;6.536;2022-12-07T05:57:05;8.63;;;1.13;;
52033;SDS011;38045;52.988;6.536;2022-12-07T05:59:31;6.05;;;1.27;;
52033;SDS011;38045;52.988;6.536;2022-12-07T06:02:07;12.77;;;2.17;;
52033;SDS011;38045;52.988;6.536;2022-12-07T06:04:35;14.52;;;2.80;;
52033;SDS011;38045;52.988;6.536;2022-12-07T06:07:02;2.65;;;1.85;;
52033;SDS011;38045;52.988;6.536;2022-12-07T06:09:29;5.60;;;2.40;;
52033;SDS011;38045;52.988;6.536;2022-12-07T06:11:55;11.45;;;2.08;;
52033;SDS011;38045;52.988;6.536;2022-12-07T06:14:40;8.07;;;2.38;;
52033;SDS011;38045;52.988;6.536;2022-12-07T06:17:06;9.20;;;1.50;;
52033;SDS011;38045;52.988;6.536;2022-12-07T06:19:32;20.33;;;2.72;;
52033;SDS011;38045;52.988;6.536;2022-12-07T06:21:58;7.57;;;0.85;;
52033;SDS011;38045;52.988;6.536;2022-12-07T06:24:23;4.15;;;1.05;;
52033;SDS011;38045;52.988;6.536;2022-12-07T06:26:49;6.80;;;1.00;;
52033;SDS011;38045;52.988;6.536;2022-12-07T06:29:15;5.07;;;0.47;;
52033;SDS011;38045;52.988;6.536;2022-12-07T06:31:41;8.52;;;2.22;;
52033;SDS011;38045;52.988;6.536;2022-12-07T06:34:11;9.55;;;2.10;;
52033;SDS011;38045;52.988;6.536;2022-12-07T06:36:38;10.07;;;2.13;;
52033;SDS011;38045;52.988;6.536;2022-12-07T06:39:04;10.30;;;2.03;;
52033;SDS011;38045;52.988;6.536;2022-12-07T06:41:30;1.73;;;0.88;;
52033;SDS011;38045;52.988;6.536;2022-12-07T06:43:57;6.70;;;1.08;;
52033;SDS011;38045;52.988;6.536;2022-12-07T06:46:23;4.22;;;1.27;;
52033;SDS011;38045;52.988;6.536;2022-12-07T06:48:49;2.80;;;0.60;;
52033;SDS011;38045;52.988;6.536;2022-12-07T06:51:15;5.70;;;1.48;;
52033;SDS011;38045;52.988;6.536;2022-12-07T06:53:41;4.32;;;1.42;;
52033;SDS011;38045;52.988;6.536;2022-12-07T06:56:06;8.35;;;1.73;;
52033;SDS011;38045;52.988;6.536;2022-12-07T06:58:32;26.52;;;2.78;;
52033;SDS011;38045;52.988;6.536;2022-12-07T07:00:58;5.25;;;1.27;;
52033;SDS011;38045;52.988;6.536;2022-12-07T07:03:23;12.10;;;4.20;;
52033;SDS011;38045;52.988;6.536;2022-12-07T07:05:49;10.02;;;2.55;;
52033;SDS011;38045;52.988;6.536;2022-12-07T07:08:15;12.48;;;2.38;;
52033;SDS011;38045;52.988;6.536;2022-12-07T07:10:40;1.67;;;1.25;;
52033;SDS011;38045;52.988;6.536;2022-12-07T07:13:06;2.20;;;0.82;;
52033;SDS011;38045;52.988;6.536;2022-12-07T07:15:32;4.22;;;0.60;;
52033;SDS011;38045;52.988;6.536;2022-12-07T07:17:58;3.83;;;1.88;;
52033;SDS011;38045;52.988;6.536;2022-12-07T07:20:24;8.15;;;1.75;;
52033;SDS011;38045;52.988;6.536;2022-12-07T07:22:50;2.85;;;1.33;;
52033;SDS011;38045;52.988;6.536;2022-12-07T07:25:18;8.20;;;1.80;;
52033;SDS011;38045;52.988;6.536;2022-12-07T07:27:44;5.57;;;2.33;;
52033;SDS011;38045;52.988;6.536;2022-12-07T07:30:09;27.98;;;3.05;;
52033;SDS011;38045;52.988;6.536;2022-12-07T07:32:36;5.13;;;1.10;;
52033;SDS011;38045;52.988;6.536;2022-12-07T07:35:01;6.85;;;1.58;;
52033;SDS011;38045;52.988;6.536;2022-12-07T07:37:27;2.78;;;1.42;;
52033;SDS011;38045;52.988;6.536;2022-12-07T07:39:53;32.58;;;3.22;;
52033;SDS011;38045;52.988;6.536;2022-12-07T07:42:19;19.35;;;2.58;;
52033;SDS011;38045;52.988;6.536;2022-12-07T07:44:44;8.40;;;2.00;;
52033;SDS011;38045;52.988;6.536;2022-12-07T07:47:10;4.43;;;0.70;;
52033;SDS011;38045;52.988;6.536;2022-12-07T07:49:36;6.22;;;1.42;;
52033;SDS011;38045;52.988;6.536;2022-12-07T07:52:02;6.75;;;1.45;;
52033;SDS011;38045;52.988;6.536;2022-12-07T07:54:27;10.50;;;1.20;;
52033;SDS011;38045;52.988;6.536;2022-12-07T07:56:53;3.35;;;1.42;;
52033;SDS011;38045;52.988;6.536;2022-12-07T07:59:19;11.82;;;2.55;;
52033;SDS011;38045;52.988;6.536;2022-12-07T08:01:44;3.95;;;0.70;;
52033;SDS011;38045;52.988;6.536;2022-12-07T08:04:10;5.85;;;0.95;;
52033;SDS011;38045;52.988;6.536;2022-12-07T08:06:36;6.40;;;0.90;;
52033;SDS011;38045;52.988;6.536;2022-12-07T08:09:01;6.63;;;1.88;;
52033;SDS011;38045;52.988;6.536;2022-12-07T08:11:27;5.57;;;1.42;;
52033;SDS011;38045;52.988;6.536;2022-12-07T08:13:53;5.20;;;1.67;;
52033;SDS011;38045;52.988;6.536;2022-12-07T08:16:19;7.25;;;2.15;;
52033;SDS011;38045;52.988;6.536;2022-12-07T08:18:44;10.57;;;1.55;;
52033;SDS011;38045;52.988;6.536;2022-12-07T08:21:12;6.65;;;1.27;;
52033;SDS011;38045;52.988;6.536;2022-12-07T08:23:39;7.57;;;1.60;;
52033;SDS011;38045;52.988;6.536;2022-12-07T08:26:05;3.88;;;1.20;;
52033;SDS011;38045;52.988;6.536;2022-12-07T08:28:32;3.90;;;1.27;;
52033;SDS011;38045;52.988;6.536;2022-12-07T08:30:59;7.93;;;2.20;;
52033;SDS011;38045;52.988;6.536;2022-12-07T08:33:25;6.57;;;2.42;;
52033;SDS011;38045;52.988;6.536;2022-12-07T08:35:51;4.25;;;0.75;;
52033;SDS011;38045;52.988;6.536;2022-12-07T08:38:17;4.80;;;1.80;;
52033;SDS011;38045;52.988;6.536;2022-12-07T08:40:42;4.05;;;1.85;;
52033;SDS011;38045;52.988;6.536;2022-12-07T08:43:08;5.28;;;1.15;;
52033;SDS011;38045;52.988;6.536;2022-12-07T08:45:33;2.20;;;1.25;;
52033;SDS011;38045;52.988;6.536;2022-12-07T08:48:07;2.70;;;1.20;;
52033;SDS011;38045;52.988;6.536;2022-12-07T08:50:37;4.38;;;1.17;;
52033;SDS011;38045;52.988;6.536;2022-12-07T08:53:04;6.38;;;2.83;;
52033;SDS011;38045;52.988;6.536;2022-12-07T08:55:31;6.80;;;2.65;;
52033;SDS011;38045;52.988;6.536;2022-12-07T08:57:59;4.65;;;1.42;;
52033;SDS011;38045;52.988;6.536;2022-12-07T09:00:25;4.72;;;1.23;;
52033;SDS011;38045;52.988;6.536;2022-12-07T09:02:51;4.93;;;1.42;;
52033;SDS011;38045;52.988;6.536;2022-12-07T09:05:18;7.68;;;1.73;;
52033;SDS011;38045;52.988;6.536;2022-12-07T09:07:44;8.18;;;1.80;;
52033;SDS011;38045;52.988;6.536;2022-12-07T09:10:12;7.55;;;1.88;;
52033;SDS011;38045;52.988;6.536;2022-12-07T09:12:38;3.00;;;1.35;;
52033;SDS011;38045;52.988;6.536;2022-12-07T09:15:03;11.70;;;1.98;;
52033;SDS011;38045;52.988;6.536;2022-12-07T09:17:31;7.95;;;2.00;;
52033;SDS011;38045;52.988;6.536;2022-12-07T09:19:58;5.37;;;1.20;;
52033;SDS011;38045;52.988;6.536;2022-12-07T09:22:27;6.50;;;3.20;;
52033;SDS011;38045;52.988;6.536;2022-12-07T09:24:55;2.85;;;1.50;;
52033;SDS011;38045;52.988;6.536;2022-12-07T09:27:21;7.97;;;2.70;;
52033;SDS011;38045;52.988;6.536;2022-12-07T09:29:47;5.32;;;2.22;;
52033;SDS011;38045;52.988;6.536;2022-12-07T09:32:12;7.82;;;2.42;;
52033;SDS011;38045;52.988;6.536;2022-12-07T09:34:38;12.00;;;2.95;;
52033;SDS011;38045;52.988;6.536;2022-12-07T09:37:03;6.57;;;2.53;;
52033;SDS011;38045;52.988;6.536;2022-12-07T09:39:29;9.10;;;1.85;;
52033;SDS011;38045;52.988;6.536;2022-12-07T09:41:56;11.68;;;1.77;;
52033;SDS011;38045;52.988;6.536;2022-12-07T09:44:24;6.33;;;1.40;;
52033;SDS011;38045;52.988;6.536;2022-12-07T09:46:51;6.45;;;2.30;;
52033;SDS011;38045;52.988;6.536;2022-12-07T09:49:19;12.05;;;2.78;;
52033;SDS011;38045;52.988;6.536;2022-12-07T09:51:46;6.60;;;1.17;;
52033;SDS011;38045;52.988;6.536;2022-12-07T09:54:13;4.93;;;1.30;;
52033;SDS011;38045;52.988;6.536;2022-12-07T09:56:41;6.60;;;1.58;;
52033;SDS011;38045;52.988;6.536;2022-12-07T09:59:09;3.13;;;1.45;;
52033;SDS011;38045;52.988;6.536;2022-12-07T10:01:40;6.88;;;1.55;;
52033;SDS011;38045;52.988;6.536;2022-12-07T10:04:14;5.32;;;1.52;;
52033;SDS011;38045;52.988;6.536;2022-12-07T10:06:43;9.02;;;1.13;;
52033;SDS011;38045;52.988;6.536;2022-12-07T10:09:17;7.50;;;1.90;;
52033;SDS011;38045;52.988;6.536;2022-12-07T10:11:57;5.05;;;1.17;;
52033;SDS011;38045;52.988;6.536;2022-12-07T10:14:24;6.78;;;1.65;;
52033;SDS011;38045;52.988;6.536;2022-12-07T10:16:54;11.27;;;1.65;;
52033;SDS011;38045;52.988;6.536;2022-12-07T10:19:23;6.80;;;3.22;;
52033;SDS011;38045;52.988;6.536;2022-12-07T10:24:33;2.42;;;1.55;;
52033;SDS011;38045;52.988;6.536;2022-12-07T10:26:58;7.75;;;1.77;;
52033;SDS011;38045;52.988;6.536;2022-12-07T10:29:34;13.88;;;4.65;;
52033;SDS011;38045;52.988;6.536;2022-12-07T10:34:41;6.03;;;1.17;;
52033;SDS011;38045;52.988;6.536;2022-12-07T10:37:15;6.32;;;2.08;;
52033;SDS011;38045;52.988;6.536;2022-12-07T10:39:43;13.65;;;2.47;;
52033;SDS011;38045;52.988;6.536;2022-12-07T10:42:22;5.57;;;0.88;;
52033;SDS011;38045;52.988;6.536;2022-12-07T10:45:03;5.78;;;1.40;;
52033;SDS011;38045;52.988;6.536;2022-12-07T10:58:45;2.90;;;0.73;;
52033;SDS011;38045;52.988;6.536;2022-12-07T11:01:42;7.63;;;1.23;;
52033;SDS011;38045;52.988;6.536;2022-12-07T11:10:33;9.73;;;1.33;;
52033;SDS011;38045;52.988;6.536;2022-12-07T11:13:16;2.33;;;0.75;;
52033;SDS011;38045;52.988;6.536;2022-12-07T11:16:19;4.00;;;1.33;;
52033;SDS011;38045;52.988;6.536;2022-12-07T11:21:40;7.00;;;1.20;;
52033;SDS011;38045;52.988;6.536;2022-12-07T11:24:17;4.03;;;1.65;;
52033;SDS011;38045;52.988;6.536;2022-12-07T11:37:23;0.73;;;0.60;;
52033;SDS011;38045;52.988;6.536;2022-12-07T11:39:55;10.82;;;1.63;;
52033;SDS011;38045;52.988;6.536;2022-12-07T11:42:26;11.48;;;2.67;;
52033;SDS011;38045;52.988;6.536;2022-12-07T11:45:16;4.03;;;1.75;;
52033;SDS011;38045;52.988;6.536;2022-12-07T11:47:54;4.55;;;0.98;;
52033;SDS011;38045;52.988;6.536;2022-12-07T11:50:37;1.20;;;0.60;;
52033;SDS011;38045;52.988;6.536;2022-12-07T11:58:49;9.07;;;1.75;;
52033;SDS011;38045;52.988;6.536;2022-12-07T12:03:55;1.48;;;1.27;;
52033;SDS011;38045;52.988;6.536;2022-12-07T12:06:28;8.57;;;3.60;;
52033;SDS011;38045;52.988;6.536;2022-12-07T12:20:15;6.22;;;1.80;;
52033;SDS011;38045;52.988;6.536;2022-12-07T12:25:42;5.70;;;1.40;;
52033;SDS011;38045;52.988;6.536;2022-12-07T12:33:52;4.40;;;1.20;;
52033;SDS011;38045;52.988;6.536;2022-12-07T12:39:07;3.13;;;1.03;;
52033;SDS011;38045;52.988;6.536;2022-12-07T12:47:00;24.23;;;1.60;;
52033;SDS011;38045;52.988;6.536;2022-12-07T12:52:00;9.85;;;1.55;;
52033;SDS011;38045;52.988;6.536;2022-12-07T12:54:38;1.83;;;0.80;;
52033;SDS011;38045;52.988;6.536;2022-12-07T12:57:31;2.13;;;1.10;;
52033;SDS011;38045;52.988;6.536;2022-12-07T12:59:58;4.63;;;1.20;;
52033;SDS011;38045;52.988;6.536;2022-12-07T13:05:02;2.22;;;1.05;;
52033;SDS011;38045;52.988;6.536;2022-12-07T13:12:58;3.50;;;0.75;;
52033;SDS011;38045;52.988;6.536;2022-12-07T13:15:46;0.47;;;0.47;;
52033;SDS011;38045;52.988;6.536;2022-12-07T13:21:02;1.02;;;0.70;;
52033;SDS011;38045;52.988;6.536;2022-12-07T13:23:57;2.05;;;1.50;;
52033;SDS011;38045;52.988;6.536;2022-12-07T13:36:53;1.20;;;0.10;;
52033;SDS011;38045;52.988;6.536;2022-12-07T13:41:54;1.42;;;0.10;;
52033;SDS011;38045;52.988;6.536;2022-12-07T13:44:22;0.40;;;0.22;;
52033;SDS011;38045;52.988;6.536;2022-12-07T13:46:55;3.97;;;0.88;;
52033;SDS011;38045;52.988;6.536;2022-12-07T13:49:54;1.02;;;0.30;;
52033;SDS011;38045;52.988;6.536;2022-12-07T13:52:25;0.68;;;0.10;;
52033;SDS011;38045;52.988;6.536;2022-12-07T13:54:57;0.80;;;0.73;;
52033;SDS011;38045;52.988;6.536;2022-12-07T13:57:25;1.73;;;0.55;;
52033;SDS011;38045;52.988;6.536;2022-12-07T13:59:52;1.35;;;0.80;;
52033;SDS011;38045;52.988;6.536;2022-12-07T14:02:22;0.50;;;0.43;;
52033;SDS011;38045;52.988;6.536;2022-12-07T14:04:52;0.85;;;0.30;;
52033;SDS011;38045;52.988;6.536;2022-12-07T14:07:32;1.50;;;0.30;;
52033;SDS011;38045;52.988;6.536;2022-12-07T14:10:22;7.25;;;1.50;;
52033;SDS011;38045;52.988;6.536;2022-12-07T14:12:50;1.67;;;0.52;;
52033;SDS011;38045;52.988;6.536;2022-12-07T14:15:20;2.95;;;0.75;;
52033;SDS011;38045;52.988;6.536;2022-12-07T14:17:52;0.75;;;0.57;;
52033;SDS011;38045;52.988;6.536;2022-12-07T14:23:26;1.90;;;0.70;;
52033;SDS011;38045;52.988;6.536;2022-12-07T14:25:52;2.17;;;0.80;;
52033;SDS011;38045;52.988;6.536;2022-12-07T14:28:25;1.65;;;1.27;;
52033;SDS011;38045;52.988;6.536;2022-12-07T14:30:54;4.05;;;1.60;;
52033;SDS011;38045;52.988;6.536;2022-12-07T14:33:20;4.30;;;1.90;;
52033;SDS011;38045;52.988;6.536;2022-12-07T14:35:47;2.42;;;1.02;;
52033;SDS011;38045;52.988;6.536;2022-12-07T14:38:12;3.78;;;1.48;;
52033;SDS011;38045;52.988;6.536;2022-12-07T14:40:38;3.10;;;0.95;;
52033;SDS011;38045;52.988;6.536;2022-12-07T14:43:05;3.40;;;1.40;;
52033;SDS011;38045;52.988;6.536;2022-12-07T14:45:35;5.10;;;1.50;;
52033;SDS011;38045;52.988;6.536;2022-12-07T14:48:02;4.90;;;2.25;;
52033;SDS011;38045;52.988;6.536;2022-12-07T14:50:27;3.28;;;1.77;;
52033;SDS011;38045;52.988;6.536;2022-12-07T14:52:55;1.88;;;0.45;;
52033;SDS011;38045;52.988;6.536;2022-12-07T14:55:25;1.40;;;0.75;;
52033;SDS011;38045;52.988;6.536;2022-12-07T14:57:51;5.03;;;1.23;;
52033;SDS011;38045;52.988;6.536;2022-12-07T15:00:18;3.20;;;1.90;;
52033;SDS011;38045;52.988;6.536;2022-12-07T15:02:45;7.93;;;3.42;;
52033;SDS011;38045;52.988;6.536;2022-12-07T15:05:11;7.28;;;2.90;;
52033;SDS011;38045;52.988;6.536;2022-12-07T15:07:38;5.07;;;1.50;;
52033;SDS011;38045;52.988;6.536;2022-12-07T15:10:04;2.92;;;0.95;;
52033;SDS011;38045;52.988;6.536;2022-12-07T15:12:30;1.45;;;0.82;;
52033;SDS011;38045;52.988;6.536;2022-12-07T15:14:57;8.07;;;1.60;;
52033;SDS011;38045;52.988;6.536;2022-12-07T15:17:22;3.10;;;0.98;;
52033;SDS011;38045;52.988;6.536;2022-12-07T15:19:48;5.78;;;3.03;;
52033;SDS011;38045;52.988;6.536;2022-12-07T15:22:14;4.68;;;1.35;;
52033;SDS011;38045;52.988;6.536;2022-12-07T15:24:39;5.57;;;2.78;;
52033;SDS011;38045;52.988;6.536;2022-12-07T15:27:05;3.55;;;1.50;;
52033;SDS011;38045;52.988;6.536;2022-12-07T15:29:30;9.20;;;1.55;;
52033;SDS011;38045;52.988;6.536;2022-12-07T15:31:56;8.15;;;2.42;;
52033;SDS011;38045;52.988;6.536;2022-12-07T15:34:23;5.53;;;1.67;;
52033;SDS011;38045;52.988;6.536;2022-12-07T15:36:50;4.82;;;1.88;;
52033;SDS011;38045;52.988;6.536;2022-12-07T15:39:15;3.60;;;1.63;;
52033;SDS011;38045;52.988;6.536;2022-12-07T15:41:41;2.30;;;1.85;;
52033;SDS011;38045;52.988;6.536;2022-12-07T15:44:09;10.43;;;4.53;;
52033;SDS011;38045;52.988;6.536;2022-12-07T15:46:55;13.50;;;3.17;;
52033;SDS011;38045;52.988;6.536;2022-12-07T15:49:21;0.75;;;0.70;;
52033;SDS011;38045;52.988;6.536;2022-12-07T15:51:46;3.22;;;2.40;;
52033;SDS011;38045;52.988;6.536;2022-12-07T15:54:17;7.00;;;3.20;;
52033;SDS011;38045;52.988;6.536;2022-12-07T15:56:47;2.67;;;1.30;;
52033;SDS011;38045;52.988;6.536;2022-12-07T15:59:14;5.03;;;1.58;;
52033;SDS011;38045;52.988;6.536;2022-12-07T16:01:39;1.88;;;1.77;;
52033;SDS011;38045;52.988;6.536;2022-12-07T16:04:05;3.70;;;1.30;;
52033;SDS011;38045;52.988;6.536;2022-12-07T16:06:31;7.82;;;1.98;;
52033;SDS011;38045;52.988;6.536;2022-12-07T16:08:57;2.00;;;1.05;;
52033;SDS011;38045;52.988;6.536;2022-12-07T16:11:22;4.82;;;1.10;;
52033;SDS011;38045;52.988;6.536;2022-12-07T16:13:48;2.85;;;1.40;;
52033;SDS011;38045;52.988;6.536;2022-12-07T16:16:14;6.85;;;1.48;;
52033;SDS011;38045;52.988;6.536;2022-12-07T16:18:41;7.85;;;2.53;;
52033;SDS011;38045;52.988;6.536;2022-12-07T16:21:08;6.80;;;3.38;;
52033;SDS011;38045;52.988;6.536;2022-12-07T16:23:34;6.97;;;1.73;;
52033;SDS011;38045;52.988;6.536;2022-12-07T16:26:03;4.97;;;2.20;;
52033;SDS011;38045;52.988;6.536;2022-12-07T16:28:33;4.93;;;1.48;;
52033;SDS011;38045;52.988;6.536;2022-12-07T16:31:00;4.78;;;1.42;;
52033;SDS011;38045;52.988;6.536;2022-12-07T16:33:27;6.22;;;1.48;;
52033;SDS011;38045;52.988;6.536;2022-12-07T16:35:52;4.38;;;1.40;;
52033;SDS011;38045;52.988;6.536;2022-12-07T16:38:18;2.03;;;0.50;;
52033;SDS011;38045;52.988;6.536;2022-12-07T16:40:43;4.78;;;0.95;;
52033;SDS011;38045;52.988;6.536;2022-12-07T16:43:10;4.57;;;0.77;;
52033;SDS011;38045;52.988;6.536;2022-12-07T16:45:39;5.22;;;1.58;;
52033;SDS011;38045;52.988;6.536;2022-12-07T16:48:04;5.00;;;3.45;;
52033;SDS011;38045;52.988;6.536;2022-12-07T16:50:30;3.83;;;0.88;;
52033;SDS011;38045;52.988;6.536;2022-12-07T16:52:56;2.22;;;0.95;;
52033;SDS011;38045;52.988;6.536;2022-12-07T16:55:21;2.30;;;0.98;;
52033;SDS011;38045;52.988;6.536;2022-12-07T16:57:47;0.60;;;0.47;;
52033;SDS011;38045;52.988;6.536;2022-12-07T17:00:13;0.22;;;0.22;;
52033;SDS011;38045;52.988;6.536;2022-12-07T17:02:38;0.85;;;0.70;;
52033;SDS011;38045;52.988;6.536;2022-12-07T17:05:04;5.35;;;1.25;;
52033;SDS011;38045;52.988;6.536;2022-12-07T17:07:30;1.17;;;0.70;;
52033;SDS011;38045;52.988;6.536;2022-12-07T17:09:55;4.68;;;1.75;;
52033;SDS011;38045;52.988;6.536;2022-12-07T17:12:21;2.60;;;1.80;;
52033;SDS011;38045;52.988;6.536;2022-12-07T17:14:46;3.28;;;2.17;;